createdAt,value
2019-01-29T00:09:11.100Z,128.37
2019-01-29T00:19:16.410Z,119.87
2019-01-29T00:29:21.794Z,103.97
2019-01-29T00:39:27.050Z,108.07
2019-01-29T00:49:32.411Z,95.67
2019-01-29T00:59:37.760Z,91.37
2019-01-29T01:09:43.088Z,94.47
2019-01-29T01:19:48.425Z,114.90
2019-01-29T01:29:53.690Z,105.87
2019-01-29T01:39:58.982Z,102.73
2019-01-29T01:50:04.898Z,104.73
2019-01-29T02:00:16.247Z,103.50
2019-01-29T02:10:23.874Z,84.03
2019-01-29T02:20:29.220Z,92.43
2019-01-29T02:30:34.486Z,99.33
2019-01-29T02:40:39.773Z,97.23
2019-01-29T02:50:45.036Z,86.17
2019-01-29T03:00:50.344Z,91.43
2019-01-29T03:10:55.735Z,70.37
2019-01-29T03:21:01.054Z,89.87
2019-01-29T03:31:06.374Z,77.40
2019-01-29T03:41:11.671Z,82.13
2019-01-29T03:51:16.953Z,72.10
2019-01-29T04:01:22.307Z,72.57
2019-01-29T04:11:27.599Z,74.07
2019-01-29T04:21:32.892Z,74.53
2019-01-29T04:31:38.176Z,74.10
2019-01-29T04:41:43.509Z,64.03
2019-01-29T04:51:48.869Z,67.03
2019-01-29T05:01:54.228Z,64.00
2019-01-29T05:11:59.531Z,69.27
2019-01-29T05:22:04.861Z,61.60
2019-01-29T05:32:10.261Z,71.47
2019-01-29T05:42:15.608Z,66.23
2019-01-29T05:52:20.865Z,68.87
2019-01-29T06:02:26.194Z,70.80
2019-01-29T06:12:31.477Z,60.23
2019-01-29T06:22:36.778Z,74.60
2019-01-29T06:32:42.078Z,73.43
2019-01-29T06:42:47.474Z,75.77
2019-01-29T06:52:52.778Z,75.00
2019-01-29T07:02:58.585Z,76.40
2019-01-29T07:13:03.939Z,72.67
2019-01-29T07:23:09.287Z,66.77
2019-01-29T07:33:14.785Z,77.77
2019-01-29T07:43:20.115Z,72.70
2019-01-29T07:53:25.467Z,78.27
2019-01-29T08:03:30.701Z,73.17
2019-01-29T08:13:36.061Z,67.20
2019-01-29T08:23:41.454Z,70.93
2019-01-29T08:33:46.804Z,71.20
2019-01-29T08:43:52.114Z,65.83
2019-01-29T08:53:57.437Z,66.40
2019-01-29T09:04:02.998Z,58.10
2019-01-29T09:14:08.341Z,60.13
2019-01-29T09:24:13.859Z,52.10
2019-01-29T09:34:19.217Z,58.30
2019-01-29T09:44:25.546Z,49.97
2019-01-29T09:54:30.899Z,53.83
2019-01-29T10:04:36.370Z,52.83
2019-01-29T10:14:41.764Z,55.13
2019-01-29T10:24:47.118Z,41.03
2019-01-29T10:34:52.533Z,39.57
2019-01-29T10:44:58.405Z,36.47
2019-01-29T10:55:03.891Z,32.87
2019-01-29T11:05:10.549Z,29.17
2019-01-29T11:15:21.897Z,33.23
2019-01-29T11:25:28.676Z,26.63
2019-01-29T11:35:34.091Z,24.73
2019-01-29T11:45:47.512Z,29.03
2019-01-29T11:55:53.008Z,32.17
2019-01-29T12:05:58.365Z,25.60
2019-01-29T12:16:03.919Z,29.70
2019-01-29T12:26:13.299Z,23.43
2019-01-29T12:36:16.931Z,28.97
2019-01-29T12:46:23.357Z,28.90
2019-01-29T12:56:28.892Z,28.17
2019-01-29T13:06:34.297Z,25.87
2019-01-29T13:16:39.727Z,21.27
2019-01-29T13:26:45.289Z,24.97
2019-01-29T13:36:50.682Z,18.77
2019-01-29T13:46:56.107Z,24.23
2019-01-29T13:57:01.597Z,21.23
2019-01-29T14:07:06.992Z,24.13
2019-01-29T14:17:12.309Z,23.63
2019-01-29T14:27:17.788Z,21.00
2019-01-29T14:37:23.301Z,17.97
2019-01-29T14:47:28.682Z,21.07
2019-01-29T14:57:34.158Z,15.23
2019-01-29T15:07:39.858Z,18.30
2019-01-29T15:17:49.515Z,17.13
2019-01-29T15:27:55.053Z,22.83
2019-01-29T15:38:00.581Z,17.80
2019-01-29T15:48:06.505Z,19.87
2019-01-29T15:58:12.580Z,21.00
2019-01-29T16:08:18.094Z,28.80
2019-01-29T16:18:23.486Z,25.97
2019-01-29T16:28:28.939Z,27.57
2019-01-29T16:38:34.415Z,23.37
2019-01-29T16:48:39.979Z,30.30
2019-01-29T16:58:46.961Z,29.40
2019-01-29T17:08:52.283Z,25.33
2019-01-29T17:18:57.547Z,24.50
2019-01-29T17:29:03.021Z,28.27
2019-01-29T17:39:09.430Z,27.80
2019-01-29T17:49:14.929Z,29.07
2019-01-29T17:59:20.263Z,33.83
2019-01-29T18:09:25.763Z,27.27
2019-01-29T18:19:31.335Z,27.43
2019-01-29T18:29:36.846Z,24.40
2019-01-29T18:39:42.350Z,29.47
2019-01-29T18:49:48.210Z,25.60
2019-01-29T18:59:54.301Z,27.87
2019-01-29T19:09:59.629Z,28.07
2019-01-29T19:20:07.866Z,46.07
2019-01-29T19:30:16.855Z,33.37
2019-01-29T19:40:22.341Z,32.53
2019-01-29T19:50:28.577Z,31.33
2019-01-29T20:00:39.088Z,27.57
2019-01-29T20:10:44.379Z,29.57
2019-01-29T20:20:49.811Z,27.67
2019-01-29T20:30:55.355Z,28.07
2019-01-29T20:41:00.725Z,31.03
2019-01-29T20:51:06.060Z,27.83
2019-01-29T21:01:11.454Z,33.53
2019-01-29T21:11:16.817Z,35.73
2019-01-29T21:21:22.241Z,26.87
2019-01-29T21:31:27.713Z,30.63
2019-01-29T21:41:33.099Z,30.93
2019-01-29T21:51:38.541Z,31.43
2019-01-29T22:01:43.865Z,25.37
2019-01-29T22:11:49.223Z,26.53
2019-01-29T22:21:54.506Z,26.03
2019-01-29T22:31:59.854Z,26.43
2019-01-29T22:42:05.283Z,28.60
2019-01-29T22:52:10.737Z,32.73
2019-01-29T23:02:17.156Z,35.97
2019-01-29T23:12:22.724Z,32.83
2019-01-29T23:22:28.050Z,27.47
2019-01-29T23:32:33.548Z,28.80
2019-01-29T23:42:38.861Z,22.47
2019-01-29T23:52:44.394Z,26.53
